Time;durP1;ratioP1;P1;durP2;ratioP2;P2;SDS_P1;SDS_P2;PMS_P1;PMS_P2;Temp;Humidity;BMP_temperature;BMP_pressure;BME280_temperature;BME280_humidity;BME280_pressure;Samples;Min_cycle;Max_cycle;Signal;HPM_P1;HPM_P2
2023/08/25 00:01:43;;;;;;;;;;;;;;;18.93;100;101001.4;;;;-80
2023/08/25 00:02:27;;;;;;;54.4;30.2;;;;;;;;;;;;;-80
2023/08/25 00:06:47;;;;;;;;;;;;;;;18.89;100;101001.4;;;;-81
2023/08/25 00:11:44;;;;;;;;;;;;;;;18.85;100;100998.1;;;;-81
2023/08/25 00:16:43;;;;;;;;;;;;;;;18.81;100;100998.5;;;;-80
2023/08/25 00:21:43;;;;;;;;;;;;;;;18.77;100;100997.4;;;;-80
2023/08/25 00:26:43;;;;;;;;;;;;;;;18.74;100;101004;;;;-81
2023/08/25 00:31:44;;;;;;;;;;;;;;;18.71;100;100998;;;;-80
2023/08/25 00:32:30;;;;;;;64.7;33.9;;;;;;;;;;;;;-79
2023/08/25 00:36:43;;;;;;;;;;;;;;;18.7;100;101002.2;;;;-79
2023/08/25 00:41:45;;;;;;;;;;;;;;;18.71;100;100995.1;;;;-81
2023/08/25 00:46:43;;;;;;;;;;;;;;;18.71;100;100992.2;;;;-80
2023/08/25 00:51:43;;;;;;;;;;;;;;;18.65;100;100998.1;;;;-79
2023/08/25 00:56:43;;;;;;;;;;;;;;;18.6;100;100995.3;;;;-81
2023/08/25 01:01:45;;;;;;;;;;;;;;;18.61;100;100996.2;;;;-81
2023/08/25 01:02:33;;;;;;;71.6;34.6;;;;;;;;;;;;;-79
2023/08/25 01:06:44;;;;;;;;;;;;;;;18.65;100;100996.7;;;;-80
2023/08/25 01:11:47;;;;;;;;;;;;;;;18.63;100;100998.8;;;;-79
2023/08/25 01:16:47;;;;;;;;;;;;;;;18.57;100;100996.8;;;;-80
2023/08/25 01:21:45;;;;;;;;;;;;;;;18.53;100;100985.6;;;;-80
2023/08/25 01:26:44;;;;;;;;;;;;;;;18.63;100;100993.4;;;;-81
2023/08/25 01:31:43;;;;;;;;;;;;;;;18.71;100;100987.5;;;;-81
2023/08/25 01:32:38;;;;;;;71.1;36.6;;;;;;;;;;;;;-79
2023/08/25 01:36:48;;;;;;;;;;;;;;;18.78;100;100977.9;;;;-81
2023/08/25 01:41:47;;;;;;;;;;;;;;;18.78;100;100971.3;;;;-80
2023/08/25 01:46:46;;;;;;;;;;;;;;;18.76;100;100966.1;;;;-80
2023/08/25 01:51:44;;;;;;;;;;;;;;;18.7;100;100966;;;;-81
2023/08/25 01:56:43;;;;;;;;;;;;;;;18.59;100;100966.3;;;;-80
2023/08/25 02:01:43;;;;;;;;;;;;;;;18.52;100;100966;;;;-79
2023/08/25 02:02:39;;;;;;;59.3;30;;;;;;;;;;;;;-79
2023/08/25 02:06:44;;;;;;;;;;;;;;;18.45;100;100965.1;;;;-81
2023/08/25 02:11:45;;;;;;;;;;;;;;;18.39;100;100959.8;;;;-81
2023/08/25 02:16:43;;;;;;;;;;;;;;;18.43;100;100954.1;;;;-81
2023/08/25 02:21:44;;;;;;;;;;;;;;;18.52;100;100949;;;;-81
2023/08/25 02:26:44;;;;;;;;;;;;;;;18.55;100;100943.6;;;;-81
2023/08/25 02:31:43;;;;;;;;;;;;;;;18.57;100;100935.8;;;;-80
2023/08/25 02:32:45;;;;;;;85.4;37.4;;;;;;;;;;;;;-80
2023/08/25 02:36:43;;;;;;;;;;;;;;;18.6;100;100927.8;;;;-79
2023/08/25 02:41:43;;;;;;;;;;;;;;;18.59;100;100939.4;;;;-82
2023/08/25 02:46:44;;;;;;;;;;;;;;;18.65;100;100934.7;;;;-80
2023/08/25 02:51:44;;;;;;;;;;;;;;;18.67;100;100931.2;;;;-79
2023/08/25 02:56:46;;;;;;;;;;;;;;;18.73;100;100926.7;;;;-79
2023/08/25 03:01:43;;;;;;;;;;;;;;;18.74;100;100922.7;;;;-80
2023/08/25 03:02:46;;;;;;;78.7;35;;;;;;;;;;;;;-82
2023/08/25 03:06:44;;;;;;;;;;;;;;;18.74;100;100913.9;;;;-81
2023/08/25 03:11:43;;;;;;;;;;;;;;;18.63;100;100902.4;;;;-80
2023/08/25 03:16:43;;;;;;;;;;;;;;;18.51;100;100895.1;;;;-81
2023/08/25 03:21:43;;;;;;;;;;;;;;;18.47;100;100899.6;;;;-81
2023/08/25 03:26:43;;;;;;;;;;;;;;;18.47;100;100902.9;;;;-80
2023/08/25 03:31:43;;;;;;;;;;;;;;;18.5;100;100894.7;;;;-80
2023/08/25 03:32:48;;;;;;;101.3;38.2;;;;;;;;;;;;;-80
2023/08/25 03:36:43;;;;;;;;;;;;;;;18.51;100;100890.7;;;;-80
2023/08/25 03:41:47;;;;;;;;;;;;;;;18.51;100;100880.9;;;;-81
2023/08/25 03:46:45;;;;;;;;;;;;;;;18.53;100;100879;;;;-79
2023/08/25 03:51:43;;;;;;;;;;;;;;;18.55;100;100882;;;;-79
2023/08/25 03:56:44;;;;;;;;;;;;;;;18.59;100;100886.1;;;;-79
2023/08/25 04:01:43;;;;;;;;;;;;;;;18.61;100;100889.9;;;;-79
2023/08/25 04:02:51;;;;;;;83.6;37.3;;;;;;;;;;;;;-80
2023/08/25 04:06:48;;;;;;;;;;;;;;;18.65;100;100888.7;;;;-78
2023/08/25 04:11:43;;;;;;;;;;;;;;;18.68;100;100887.7;;;;-83
2023/08/25 04:16:45;;;;;;;;;;;;;;;18.7;100;100888.9;;;;-79
2023/08/25 04:21:43;;;;;;;;;;;;;;;18.73;100;100881;;;;-80
2023/08/25 04:26:43;;;;;;;;;;;;;;;18.76;100;100872.5;;;;-79
2023/08/25 04:31:43;;;;;;;;;;;;;;;18.76;100;100870.7;;;;-79
2023/08/25 04:32:54;;;;;;;88.6;39;;;;;;;;;;;;;-79
2023/08/25 04:36:45;;;;;;;;;;;;;;;18.77;100;100876.9;;;;-80
2023/08/25 04:41:43;;;;;;;;;;;;;;;18.78;100;100877.1;;;;-79
2023/08/25 04:46:43;;;;;;;;;;;;;;;18.79;100;100885.9;;;;-79
2023/08/25 04:51:43;;;;;;;;;;;;;;;18.8;100;100885.2;;;;-81
2023/08/25 04:56:43;;;;;;;;;;;;;;;18.82;100;100886.8;;;;-81
2023/08/25 05:01:43;;;;;;;;;;;;;;;18.83;100;100885.7;;;;-80
2023/08/25 05:02:57;;;;;;;102.5;37.7;;;;;;;;;;;;;-79
2023/08/25 05:06:43;;;;;;;;;;;;;;;18.89;100;100887.1;;;;-81
2023/08/25 05:11:43;;;;;;;;;;;;;;;18.93;100;100885.2;;;;-81
2023/08/25 05:16:43;;;;;;;;;;;;;;;18.93;100;100884.3;;;;-80
2023/08/25 05:21:43;;;;;;;;;;;;;;;18.97;100;100879;;;;-80
2023/08/25 05:26:51;;;;;;;;;;;;;;;18.97;100;100874.2;;;;-79
2023/08/25 05:31:44;;;;;;;;;;;;;;;19.01;100;100874.6;;;;-80
2023/08/25 05:33:00;;;;;;;99;36.4;;;;;;;;;;;;;-80
2023/08/25 05:36:43;;;;;;;;;;;;;;;19.04;100;100872.1;;;;-79
2023/08/25 05:41:43;;;;;;;;;;;;;;;19.09;100;100874.1;;;;-81
2023/08/25 05:46:44;;;;;;;;;;;;;;;19.12;100;100873.3;;;;-81
2023/08/25 05:51:43;;;;;;;;;;;;;;;19.13;100;100871.9;;;;-81
2023/08/25 05:56:43;;;;;;;;;;;;;;;19.2;100;100868.8;;;;-79
2023/08/25 06:01:44;;;;;;;;;;;;;;;19.25;100;100868.6;;;;-82
2023/08/25 06:03:03;;;;;;;91.9;35.3;;;;;;;;;;;;;-80
2023/08/25 06:06:44;;;;;;;;;;;;;;;19.32;100;100861.4;;;;-81
2023/08/25 06:11:43;;;;;;;;;;;;;;;19.39;100;100857.8;;;;-81
2023/08/25 06:16:46;;;;;;;;;;;;;;;19.45;100;100858.7;;;;-80
2023/08/25 06:21:43;;;;;;;;;;;;;;;19.51;100;100861;;;;-80
2023/08/25 06:26:43;;;;;;;;;;;;;;;19.58;100;100861.4;;;;-79
2023/08/25 06:31:44;;;;;;;;;;;;;;;19.69;100;100853.3;;;;-80
2023/08/25 06:33:06;;;;;;;87.8;34.8;;;;;;;;;;;;;-81
2023/08/25 06:36:43;;;;;;;;;;;;;;;19.73;100;100855;;;;-80
2023/08/25 06:41:44;;;;;;;;;;;;;;;19.82;100;100860;;;;-82
2023/08/25 06:46:46;;;;;;;;;;;;;;;19.7;100;100841.1;;;;-80
2023/08/25 06:51:45;;;;;;;;;;;;;;;19.97;100;100862.1;;;;-80
2023/08/25 06:56:43;;;;;;;;;;;;;;;19.98;100;100859.7;;;;-79
2023/08/25 07:01:43;;;;;;;;;;;;;;;20.04;100;100874.2;;;;-80
2023/08/25 07:03:09;;;;;;;60.7;30.2;;;;;;;;;;;;;-81
2023/08/25 07:06:43;;;;;;;;;;;;;;;20.11;100;100871.7;;;;-79
2023/08/25 07:11:43;;;;;;;;;;;;;;;20.32;100;100871.5;;;;-81
2023/08/25 07:16:43;;;;;;;;;;;;;;;20.57;100;100868.7;;;;-80
2023/08/25 07:21:44;;;;;;;;;;;;;;;21.05;100;100863.7;;;;-80
2023/08/25 07:26:43;;;;;;;;;;;;;;;21.37;100;100857.5;;;;-80
2023/08/25 07:31:43;;;;;;;;;;;;;;;21.55;100;100846.4;;;;-81
2023/08/25 07:33:13;;;;;;;50.4;25.7;;;;;;;;;;;;;-79
2023/08/25 07:36:43;;;;;;;;;;;;;;;21.75;100;100840.5;;;;-78
2023/08/25 07:41:43;;;;;;;;;;;;;;;21.71;100;100839.6;;;;-81
2023/08/25 07:46:43;;;;;;;;;;;;;;;21.63;97.87598;100850.9;;;;-78
2023/08/25 07:51:43;;;;;;;;;;;;;;;21.52;98.70801;100853.9;;;;-81
2023/08/25 07:56:43;;;;;;;;;;;;;;;21.52;99.05762;100852.1;;;;-80
2023/08/25 08:01:43;;;;;;;;;;;;;;;21.55;98.74805;100845.6;;;;-80
2023/08/25 08:03:19;;;;;;;41.3;24.5;;;;;;;;;;;;;-79
2023/08/25 08:06:43;;;;;;;;;;;;;;;21.67;97.3291;100848;;;;-80
2023/08/25 08:11:49;;;;;;;;;;;;;;;21.85;96.74707;100854.5;;;;-80
2023/08/25 08:16:46;;;;;;;;;;;;;;;22.04;94.45898;100848;;;;-80
2023/08/25 08:21:46;;;;;;;;;;;;;;;22.3;93.48438;100843.8;;;;-80
2023/08/25 08:26:44;;;;;;;;;;;;;;;22.21;92.10742;100848.3;;;;-79
2023/08/25 08:31:44;;;;;;;;;;;;;;;22.18;91.34082;100848.6;;;;-81
2023/08/25 08:33:22;;;;;;;39.8;23;;;;;;;;;;;;;-81
2023/08/25 08:36:43;;;;;;;;;;;;;;;22.43;90.24805;100852.7;;;;-80
2023/08/25 08:41:44;;;;;;;;;;;;;;;22.64;88.70215;100858.6;;;;-78
2023/08/25 08:46:44;;;;;;;;;;;;;;;22.87;86.9082;100864.3;;;;-80
2023/08/25 08:51:45;;;;;;;;;;;;;;;23.09;85.26953;100858.7;;;;-81
2023/08/25 08:56:43;;;;;;;;;;;;;;;23.54;82.31445;100857.9;;;;-80
2023/08/25 09:01:43;;;;;;;;;;;;;;;24.22;80.65918;100861.9;;;;-79
2023/08/25 09:03:24;;;;;;;31.8;18.2;;;;;;;;;;;;;-79
2023/08/25 09:06:44;;;;;;;;;;;;;;;24.48;77.83887;100855.3;;;;-82
2023/08/25 09:11:43;;;;;;;;;;;;;;;24.47;76.6123;100857.6;;;;-81
2023/08/25 09:16:43;;;;;;;;;;;;;;;24.44;77.38379;100864.3;;;;-79
2023/08/25 09:21:48;;;;;;;;;;;;;;;24.25;75.02051;100871;;;;-79
2023/08/25 09:26:43;;;;;;;;;;;;;;;24.77;72.8877;100879.3;;;;-79
2023/08/25 09:31:43;;;;;;;;;;;;;;;24.92;71.68457;100875.4;;;;-78
2023/08/25 09:33:28;;;;;;;23.1;12.4;;;;;;;;;;;;;-79
2023/08/25 09:36:53;;;;;;;;;;;;;;;24.81;72.12402;100875.5;;;;-78
2023/08/25 09:41:44;;;;;;;;;;;;;;;24.73;67.93945;100872;;;;-77
2023/08/25 09:46:43;;;;;;;;;;;;;;;25.1;66.60645;100877.2;;;;-81
2023/08/25 09:51:44;;;;;;;;;;;;;;;24.93;65.57129;100869.2;;;;-80
2023/08/25 09:56:45;;;;;;;;;;;;;;;25.28;64.97852;100866.7;;;;-81
2023/08/25 10:01:44;;;;;;;;;;;;;;;25.18;64.75684;100866.8;;;;-80
2023/08/25 10:03:32;;;;;;;14.1;4.7;;;;;;;;;;;;;-80
2023/08/25 10:06:46;;;;;;;;;;;;;;;25.54;61.65625;100871.2;;;;-80
2023/08/25 10:11:48;;;;;;;;;;;;;;;25.61;61.99902;100860.1;;;;-80
2023/08/25 10:16:52;;;;;;;;;;;;;;;25.68;63.34473;100857.9;;;;-81
2023/08/25 10:21:45;;;;;;;;;;;;;;;25.99;62.91602;100852.6;;;;-81
2023/08/25 10:26:53;;;;;;;;;;;;;;;26.03;62.01074;100846;;;;-81
2023/08/25 10:31:48;;;;;;;;;;;;;;;26.48;60.67578;100845.3;;;;-82
2023/08/25 10:33:47;;;;;;;14.4;6.2;;;;;;;;;;;;;-80
2023/08/25 10:36:46;;;;;;;;;;;;;;;27.12;56.75098;100838.6;;;;-80
2023/08/25 10:41:47;;;;;;;;;;;;;;;27.21;56.72852;100838;;;;-79
2023/08/25 10:46:48;;;;;;;;;;;;;;;27.09;56.36523;100831.5;;;;-82
2023/08/25 10:51:47;;;;;;;;;;;;;;;26.78;56.32617;100818.9;;;;-80
2023/08/25 10:56:43;;;;;;;;;;;;;;;26.6;57.85254;100824.6;;;;-79
2023/08/25 11:01:54;;;;;;;;;;;;;;;26.73;59.70508;100818.5;;;;-81
2023/08/25 11:03:54;;;;;;;11.6;5.1;;;;;;;;;;;;;-81
2023/08/25 11:06:45;;;;;;;;;;;;;;;27.43;55.53906;100822.7;;;;-80
2023/08/25 11:11:45;;;;;;;;;;;;;;;28.13;54.02344;100817.9;;;;-79
2023/08/25 11:16:49;;;;;;;;;;;;;;;28.38;51.3584;100819.9;;;;-81
2023/08/25 11:21:45;;;;;;;;;;;;;;;28.6;55.90234;100820.9;;;;-81
2023/08/25 11:26:43;;;;;;;;;;;;;;;28.87;55.91211;100827.2;;;;-80
2023/08/25 11:31:46;;;;;;;;;;;;;;;28.87;57.49219;100826.1;;;;-82
2023/08/25 11:33:47;;;;;;;23.5;15.2;;;;;;;;;;;;;-81
2023/08/25 11:36:43;;;;;;;;;;;;;;;28.53;56.09277;100818.1;;;;-80
2023/08/25 11:41:44;;;;;;;;;;;;;;;28.27;57.19727;100823.4;;;;-79
2023/08/25 11:46:44;;;;;;;;;;;;;;;27.9;57.63672;100830.9;;;;-82
2023/08/25 11:51:45;;;;;;;;;;;;;;;27.57;58.77539;100831.2;;;;-80
2023/08/25 11:56:43;;;;;;;;;;;;;;;27.29;59.16797;100837.4;;;;-80
2023/08/25 12:01:47;;;;;;;;;;;;;;;26.88;60.94922;100848.9;;;;-79
2023/08/25 12:03:53;;;;;;;24.6;15.6;;;;;;;;;;;;;-78
2023/08/25 12:06:46;;;;;;;;;;;;;;;26.35;62.90723;100855.4;;;;-80
2023/08/25 12:11:44;;;;;;;;;;;;;;;26.11;63.78516;100859.6;;;;-82
2023/08/25 12:16:45;;;;;;;;;;;;;;;26.54;63.1875;100854.2;;;;-80
2023/08/25 12:21:43;;;;;;;;;;;;;;;26.48;62.37305;100855.7;;;;-80
2023/08/25 12:26:44;;;;;;;;;;;;;;;26.64;61.18359;100853.9;;;;-79
2023/08/25 12:31:43;;;;;;;;;;;;;;;26.84;60.22852;100854.2;;;;-79
2023/08/25 12:33:57;;;;;;;22.5;12.9;;;;;;;;;;;;;-79
2023/08/25 12:36:43;;;;;;;;;;;;;;;26.61;60.47461;100848.8;;;;-78
2023/08/25 12:41:45;;;;;;;;;;;;;;;26.78;60.47363;100850.3;;;;-80
2023/08/25 12:46:44;;;;;;;;;;;;;;;26.89;60.59375;100853.5;;;;-80
2023/08/25 12:51:43;;;;;;;;;;;;;;;26.78;59.22656;100855.4;;;;-81
2023/08/25 12:56:43;;;;;;;;;;;;;;;26.3;59.90332;100857.2;;;;-80
2023/08/25 13:01:43;;;;;;;;;;;;;;;26.01;61.8125;100854.3;;;;-80
2023/08/25 13:04:01;;;;;;;17.7;10.3;;;;;;;;;;;;;-81
2023/08/25 13:06:43;;;;;;;;;;;;;;;25.83;63.11133;100852.8;;;;-80
2023/08/25 13:11:45;;;;;;;;;;;;;;;25.71;63.17578;100851.3;;;;-80
2023/08/25 13:16:43;;;;;;;;;;;;;;;25.74;63.80273;100845.9;;;;-80
2023/08/25 13:21:43;;;;;;;;;;;;;;;25.72;62.56836;100838.5;;;;-81
2023/08/25 13:26:43;;;;;;;;;;;;;;;25.97;61.63477;100833.1;;;;-79
2023/08/25 13:31:46;;;;;;;;;;;;;;;26.23;60.48145;100823.6;;;;-81
2023/08/25 13:34:06;;;;;;;17;9.5;;;;;;;;;;;;;-80
2023/08/25 13:36:43;;;;;;;;;;;;;;;26.14;59.81348;100833.2;;;;-81
2023/08/25 13:41:43;;;;;;;;;;;;;;;25.82;61.58984;100833.7;;;;-80
2023/08/25 13:46:43;;;;;;;;;;;;;;;25.65;62.08496;100839.1;;;;-78
2023/08/25 13:51:43;;;;;;;;;;;;;;;25.19;63.4248;100840.8;;;;-79
2023/08/25 13:56:46;;;;;;;;;;;;;;;25.32;63.74316;100833.4;;;;-79
2023/08/25 14:01:43;;;;;;;;;;;;;;;25.52;62.97754;100836.2;;;;-80
2023/08/25 14:04:11;;;;;;;16.4;9.9;;;;;;;;;;;;;-80
2023/08/25 14:06:43;;;;;;;;;;;;;;;25.7;61.93262;100835.2;;;;-81
2023/08/25 14:11:43;;;;;;;;;;;;;;;25.8;60.89648;100834.7;;;;-79
2023/08/25 14:16:43;;;;;;;;;;;;;;;25.79;60.89551;100832.6;;;;-82
2023/08/25 14:21:43;;;;;;;;;;;;;;;26.29;59.65918;100829.6;;;;-78
2023/08/25 14:26:43;;;;;;;;;;;;;;;26.68;58.87988;100837.1;;;;-80
2023/08/25 14:31:43;;;;;;;;;;;;;;;26.34;58.41992;100831.5;;;;-79
2023/08/25 14:34:15;;;;;;;13.5;9.5;;;;;;;;;;;;;-80
2023/08/25 14:36:46;;;;;;;;;;;;;;;25.92;59.98047;100832.8;;;;-79
2023/08/25 14:41:43;;;;;;;;;;;;;;;25.72;60.41406;100835.5;;;;-82
2023/08/25 14:46:44;;;;;;;;;;;;;;;25.75;59.88672;100838;;;;-80
2023/08/25 14:51:43;;;;;;;;;;;;;;;25.68;60.16699;100840.1;;;;-80
2023/08/25 14:56:43;;;;;;;;;;;;;;;25.22;61.30176;100844.6;;;;-81
2023/08/25 15:01:43;;;;;;;;;;;;;;;24.97;62.26953;100845.8;;;;-81
2023/08/25 15:04:20;;;;;;;12;8.1;;;;;;;;;;;;;-80
2023/08/25 15:06:45;;;;;;;;;;;;;;;25.23;61.23438;100852.1;;;;-80
2023/08/25 15:11:43;;;;;;;;;;;;;;;25.26;60.39844;100846.5;;;;-80
2023/08/25 15:16:43;;;;;;;;;;;;;;;25.18;60.93945;100853.4;;;;-79
2023/08/25 15:21:44;;;;;;;;;;;;;;;25.16;60.81055;100851.1;;;;-82
2023/08/25 15:26:43;;;;;;;;;;;;;;;24.96;59.93262;100854.5;;;;-80
2023/08/25 15:31:45;;;;;;;;;;;;;;;24.61;61.26563;100860.3;;;;-80
2023/08/25 15:34:25;;;;;;;9.4;5.7;;;;;;;;;;;;;-79
2023/08/25 15:36:43;;;;;;;;;;;;;;;24.62;60.85352;100865;;;;-81
2023/08/25 15:41:44;;;;;;;;;;;;;;;24.63;59.7168;100870;;;;-80
2023/08/25 15:46:43;;;;;;;;;;;;;;;24.06;60.30664;100866.6;;;;-79
2023/08/25 15:51:43;;;;;;;;;;;;;;;23.72;61.06445;100873.6;;;;-81
2023/08/25 15:56:43;;;;;;;;;;;;;;;23.37;61.65723;100873.3;;;;-79
2023/08/25 16:01:43;;;;;;;;;;;;;;;23.3;62.3457;100881.1;;;;-79
2023/08/25 16:04:29;;;;;;;7.4;4.8;;;;;;;;;;;;;-80
2023/08/25 16:06:43;;;;;;;;;;;;;;;23.2;61.53223;100875;;;;-77
2023/08/25 16:11:45;;;;;;;;;;;;;;;22.94;61.79297;100883.1;;;;-77
2023/08/25 16:16:43;;;;;;;;;;;;;;;22.83;62.93457;100897.9;;;;-81
2023/08/25 16:21:46;;;;;;;;;;;;;;;22.72;64.58691;100901.6;;;;-79
2023/08/25 16:26:43;;;;;;;;;;;;;;;22.79;63.89941;100896.4;;;;-80
2023/08/25 16:31:43;;;;;;;;;;;;;;;22.64;63.79883;100893.4;;;;-79
2023/08/25 16:34:34;;;;;;;7.5;4.3;;;;;;;;;;;;;-79
2023/08/25 16:36:46;;;;;;;;;;;;;;;22.5;64.04199;100899.8;;;;-80
2023/08/25 16:41:43;;;;;;;;;;;;;;;22.58;64.03027;100887;;;;-80
2023/08/25 16:46:43;;;;;;;;;;;;;;;22.65;64.97656;100876.7;;;;-80
2023/08/25 16:51:43;;;;;;;;;;;;;;;22.5;64.61328;100879.3;;;;-82
2023/08/25 16:56:46;;;;;;;;;;;;;;;22.25;65.84473;100882.4;;;;-80
2023/08/25 17:01:43;;;;;;;;;;;;;;;22.27;66.12012;100875.4;;;;-80
2023/08/25 17:04:37;;;;;;;7.3;3.6;;;;;;;;;;;;;-80
2023/08/25 17:06:43;;;;;;;;;;;;;;;22.18;65.22949;100881.9;;;;-80
2023/08/25 17:11:44;;;;;;;;;;;;;;;22.05;65.8252;100881.8;;;;-77
2023/08/25 17:16:45;;;;;;;;;;;;;;;21.73;63.04297;100893.7;;;;-79
2023/08/25 17:21:44;;;;;;;;;;;;;;;21.63;62.24023;100884.9;;;;-80
2023/08/25 17:26:44;;;;;;;;;;;;;;;21.29;62.83203;100892.9;;;;-79
2023/08/25 17:31:43;;;;;;;;;;;;;;;20.93;63.60059;100892.6;;;;-80
2023/08/25 17:34:41;;;;;;;5.3;1.9;;;;;;;;;;;;;-80
2023/08/25 17:36:47;;;;;;;;;;;;;;;20.88;64.33398;100881.3;;;;-79
2023/08/25 17:41:47;;;;;;;;;;;;;;;20.77;64.6709;100875.2;;;;-81
2023/08/25 17:46:46;;;;;;;;;;;;;;;20.63;65.21973;100876.8;;;;-79
2023/08/25 17:51:44;;;;;;;;;;;;;;;20.29;66.5459;100889.7;;;;-78
2023/08/25 17:56:43;;;;;;;;;;;;;;;20.13;66.94043;100895.2;;;;-79
2023/08/25 18:01:43;;;;;;;;;;;;;;;19.99;68.15527;100893.9;;;;-80
2023/08/25 18:04:45;;;;;;;7.3;4.5;;;;;;;;;;;;;-79
2023/08/25 18:06:43;;;;;;;;;;;;;;;19.88;68.83105;100890.2;;;;-80
2023/08/25 18:11:43;;;;;;;;;;;;;;;19.75;69.44727;100898.9;;;;-79
2023/08/25 18:16:43;;;;;;;;;;;;;;;19.77;69.58594;100915.1;;;;-80
2023/08/25 18:21:43;;;;;;;;;;;;;;;19.66;69.89648;100926.3;;;;-80
2023/08/25 18:26:43;;;;;;;;;;;;;;;19.64;70.17676;100931.5;;;;-80
2023/08/25 18:31:43;;;;;;;;;;;;;;;19.59;70.31641;100932.4;;;;-79
2023/08/25 18:34:48;;;;;;;3.5;1.5;;;;;;;;;;;;;-79
2023/08/25 18:36:43;;;;;;;;;;;;;;;19.47;70.35352;100934.4;;;;-81
2023/08/25 18:41:43;;;;;;;;;;;;;;;19.39;71.27148;100939.2;;;;-79
2023/08/25 18:46:43;;;;;;;;;;;;;;;19.23;72.19434;100947.1;;;;-80
2023/08/25 18:51:43;;;;;;;;;;;;;;;19.22;72.1709;100944.6;;;;-79
2023/08/25 18:56:43;;;;;;;;;;;;;;;19.25;72.36914;100961.8;;;;-81
2023/08/25 19:01:43;;;;;;;;;;;;;;;19.23;72.38672;100962;;;;-80
2023/08/25 19:04:52;;;;;;;4.1;1.2;;;;;;;;;;;;;-80
2023/08/25 19:06:43;;;;;;;;;;;;;;;19.16;71.7207;100974.5;;;;-81
2023/08/25 19:11:43;;;;;;;;;;;;;;;19.03;72.54688;100976.2;;;;-78
2023/08/25 19:16:43;;;;;;;;;;;;;;;18.91;73.08301;100975.8;;;;-80
2023/08/25 19:21:43;;;;;;;;;;;;;;;18.83;72.83203;100982.3;;;;-80
2023/08/25 19:26:43;;;;;;;;;;;;;;;18.8;73.87695;100989.5;;;;-80
2023/08/25 19:31:43;;;;;;;;;;;;;;;18.74;75.21191;100989.9;;;;-81
2023/08/25 19:34:54;;;;;;;4.3;1.6;;;;;;;;;;;;;-81
2023/08/25 19:36:43;;;;;;;;;;;;;;;18.68;75.7207;100990.5;;;;-81
2023/08/25 19:41:44;;;;;;;;;;;;;;;18.64;76.20898;100991.9;;;;-81
2023/08/25 19:46:46;;;;;;;;;;;;;;;18.49;76.74805;100988.7;;;;-79
2023/08/25 19:51:43;;;;;;;;;;;;;;;18.38;77.77832;100986.3;;;;-79
2023/08/25 19:56:43;;;;;;;;;;;;;;;18.31;78.10449;100991.5;;;;-80
2023/08/25 20:01:43;;;;;;;;;;;;;;;18.29;79.00195;100993.7;;;;-81
2023/08/25 20:04:58;;;;;;;7;2.5;;;;;;;;;;;;;-81
2023/08/25 20:06:43;;;;;;;;;;;;;;;18.2;79.00977;100989.8;;;;-82
2023/08/25 20:11:43;;;;;;;;;;;;;;;18.2;80.38379;100998.1;;;;-80
2023/08/25 20:16:43;;;;;;;;;;;;;;;18.14;81.05859;100992.2;;;;-81
2023/08/25 20:21:43;;;;;;;;;;;;;;;18.11;80.82715;100988;;;;-80
2023/08/25 20:26:43;;;;;;;;;;;;;;;18.05;81.21094;100983.9;;;;-80
2023/08/25 20:31:43;;;;;;;;;;;;;;;17.99;81.52539;100986.8;;;;-80
2023/08/25 20:35:01;;;;;;;6.9;2.8;;;;;;;;;;;;;-79
2023/08/25 20:36:44;;;;;;;;;;;;;;;17.96;81.79102;100984.3;;;;-80
2023/08/25 20:41:43;;;;;;;;;;;;;;;17.91;81.54395;100981.5;;;;-80
2023/08/25 20:46:43;;;;;;;;;;;;;;;17.83;81.23828;100970.3;;;;-79
2023/08/25 20:51:43;;;;;;;;;;;;;;;17.74;82.91992;100975.5;;;;-80
2023/08/25 20:56:43;;;;;;;;;;;;;;;17.57;84.33594;100981.3;;;;-81
2023/08/25 21:01:43;;;;;;;;;;;;;;;17.42;85.67773;100987.4;;;;-81
2023/08/25 21:05:05;;;;;;;7.4;3.1;;;;;;;;;;;;;-80
2023/08/25 21:06:43;;;;;;;;;;;;;;;17.31;85.6123;100990.9;;;;-80
2023/08/25 21:11:44;;;;;;;;;;;;;;;17.23;86.68457;100984.3;;;;-79
2023/08/25 21:16:43;;;;;;;;;;;;;;;17.19;86.7207;100989.5;;;;-79
2023/08/25 21:21:44;;;;;;;;;;;;;;;17.17;87.25488;100991.3;;;;-79
2023/08/25 21:26:44;;;;;;;;;;;;;;;17.11;87.67969;100987;;;;-80
2023/08/25 21:31:43;;;;;;;;;;;;;;;16.99;88.94434;100983.6;;;;-80
2023/08/25 21:35:08;;;;;;;10.6;4.2;;;;;;;;;;;;;-81
2023/08/25 21:36:45;;;;;;;;;;;;;;;16.93;89.81641;100989.2;;;;-79
2023/08/25 21:41:43;;;;;;;;;;;;;;;16.82;90.46582;100988.4;;;;-79
2023/08/25 21:46:51;;;;;;;;;;;;;;;16.82;89.62793;100988;;;;-80
2023/08/25 21:51:44;;;;;;;;;;;;;;;16.83;88.35352;100988.1;;;;-79
2023/08/25 21:56:43;;;;;;;;;;;;;;;16.84;89.94531;100980.9;;;;-80
2023/08/25 22:01:43;;;;;;;;;;;;;;;16.82;89.89453;100985.5;;;;-81
2023/08/25 22:05:10;;;;;;;7.9;2.9;;;;;;;;;;;;;-79
2023/08/25 22:06:45;;;;;;;;;;;;;;;16.67;91.92285;100981.1;;;;-80
2023/08/25 22:11:43;;;;;;;;;;;;;;;16.6;92.41309;100981.9;;;;-80
2023/08/25 22:16:43;;;;;;;;;;;;;;;16.58;92.42969;100979.6;;;;-79
2023/08/25 22:21:43;;;;;;;;;;;;;;;16.53;93.13574;100977.8;;;;-80
2023/08/25 22:26:43;;;;;;;;;;;;;;;16.44;93.92969;100974.4;;;;-79
2023/08/25 22:31:46;;;;;;;;;;;;;;;16.39;94.2998;100970;;;;-80
2023/08/25 22:35:16;;;;;;;7;3.3;;;;;;;;;;;;;-78
2023/08/25 22:36:44;;;;;;;;;;;;;;;16.4;93.4873;100969.5;;;;-79
2023/08/25 22:41:43;;;;;;;;;;;;;;;16.29;94.10059;100964;;;;-80
2023/08/25 22:46:43;;;;;;;;;;;;;;;16.15;95.01074;100973.9;;;;-78
2023/08/25 22:51:43;;;;;;;;;;;;;;;15.98;96.1543;100961.5;;;;-79
2023/08/25 22:56:46;;;;;;;;;;;;;;;15.86;97.49902;100974.2;;;;-80
2023/08/25 23:01:45;;;;;;;;;;;;;;;15.67;98.06934;100962.3;;;;-79
2023/08/25 23:05:17;;;;;;;6.3;3.7;;;;;;;;;;;;;-80
2023/08/25 23:06:43;;;;;;;;;;;;;;;15.56;98.94922;100965.8;;;;-79
2023/08/25 23:11:43;;;;;;;;;;;;;;;15.49;99.14453;100961.2;;;;-79
2023/08/25 23:16:43;;;;;;;;;;;;;;;15.47;97.69141;100962.5;;;;-80
2023/08/25 23:21:43;;;;;;;;;;;;;;;15.4;98.10059;100962;;;;-80
2023/08/25 23:48:16;;;;;;;;;;;;;;;15.59;96.08203;100966.1;;;;-77
2023/08/25 23:53:16;;;;;;;;;;;;;;;15.52;98.11328;100961.4;;;;-78
2023/08/25 23:58:16;;;;;;;;;;;;;;;15.54;98.60938;100956.7;;;;-78
